Wetterdaten: Woche 02.11.15 - 08.11.15 (KW45)
Datum Zeit Temp. A. Feuchte A. Luftdruck Regen Wind Richtung Sonnenschein ET UV Solar Taupunkt Windchill Windben Empfang
02.11.2015 00:00 3,4 C 74 % 1030,8 hPa 0,0 l/m 1,5 km/h (1 Bft) O-NO 0,00 h 0,000 mm 0,0 UV-I 0 W/m -0,8 C 3,4 C 3,0 km/h (1 Bft) 98,98 %
02.11.2015 01:00 2,7 C 76 % 1030,6 hPa 0,0 l/m 0,5 km/h (0 Bft) O 0,00 h 0,000 mm 0,0 UV-I 0 W/m -1,1 C 2,7 C 1,1 km/h (1 Bft) 99,09 %
02.11.2015 02:00 0,9 C 83 % 1030,2 hPa 0,0 l/m 0,1 km/h (0 Bft) S-SO 0,00 h 0,000 mm 0,0 UV-I 0 W/m -1,6 C 0,9 C 0,4 km/h (0 Bft) 98,89 %
02.11.2015 03:00 -0,1 C 87 % 1029,7 hPa 0,0 l/m 0,3 km/h (0 Bft) S-SO 0,00 h 0,000 mm 0,0 UV-I 0 W/m -2,0 C -0,1 C 0,7 km/h (0 Bft) 98,99 %
02.11.2015 04:00 -1,1 C 91 % 1029,6 hPa 0,0 l/m 0,5 km/h (0 Bft) S 0,00 h 0,000 mm 0,0 UV-I 0 W/m -2,4 C -1,1 C 1,1 km/h (0 Bft) 99,42 %
02.11.2015 05:00 -1,7 C 92 % 1029,6 hPa 0,0 l/m 0,2 km/h (0 Bft) S 0,00 h 0,000 mm 0,0 UV-I 0 W/m -2,8 C -1,7 C 0,8 km/h (0 Bft) 99,02 %
02.11.2015 06:00 -1,8 C 92 % 1029,6 hPa 0,0 l/m 0,2 km/h (0 Bft) S 0,00 h 0,000 mm 0,0 UV-I 6 W/m -2,8 C -1,8 C 0,6 km/h (0 Bft) 99,26 %
02.11.2015 07:00 -1,3 C 92 % 1030,0 hPa 0,0 l/m 0,0 km/h (0 Bft) N 0,45 h 0,000 mm 0,0 UV-I 49 W/m -2,4 C -1,3 C 0,1 km/h (0 Bft) 99,13 %
02.11.2015 08:00 1,0 C 89 % 1030,2 hPa 0,0 l/m 0,7 km/h (0 Bft) N-NO 1,00 h 0,025 mm 0,5 UV-I 194 W/m -0,7 C 1,0 C 1,5 km/h (1 Bft) 99,40 %
02.11.2015 09:00 3,5 C 81 % 1030,1 hPa 0,0 l/m 4,4 km/h (1 Bft) O 0,98 h 0,077 mm 0,9 UV-I 294 W/m 0,5 C 3,5 C 7,2 km/h (2 Bft) 99,04 %
02.11.2015 10:00 5,1 C 75 % 1029,9 hPa 0,0 l/m 4,0 km/h (1 Bft) O 0,97 h 0,127 mm 1,4 UV-I 369 W/m 1,0 C 5,1 C 6,7 km/h (2 Bft) 99,21 %
02.11.2015 11:00 7,4 C 69 % 1029,5 hPa 0,0 l/m 2,0 km/h (1 Bft) O 1,00 h 0,152 mm 1,8 UV-I 474 W/m 2,0 C 7,4 C 3,6 km/h (1 Bft) 99,36 %
02.11.2015 12:00 9,5 C 62 % 1028,9 hPa 0,0 l/m 3,3 km/h (1 Bft) O 0,97 h 0,203 mm 1,6 UV-I 450 W/m 2,7 C 9,5 C 5,5 km/h (1 Bft) 99,25 %
02.11.2015 13:00 10,8 C 59 % 1028,4 hPa 0,0 l/m 2,9 km/h (1 Bft) NO 1,00 h 0,229 mm 1,2 UV-I 421 W/m 3,1 C 10,8 C 4,9 km/h (1 Bft) 98,97 %
02.11.2015 14:00 11,2 C 57 % 1028,0 hPa 0,0 l/m 4,7 km/h (1 Bft) O 1,00 h 0,203 mm 0,7 UV-I 300 W/m 2,9 C 11,0 C 7,7 km/h (2 Bft) 99,29 %
02.11.2015 15:00 10,4 C 59 % 1027,8 hPa 0,0 l/m 5,0 km/h (1 Bft) O 1,00 h 0,178 mm 0,0 UV-I 138 W/m 2,8 C 10,3 C 8,0 km/h (2 Bft) 99,41 %
02.11.2015 16:00 8,7 C 67 % 1027,9 hPa 0,0 l/m 2,8 km/h (1 Bft) O 0,10 h 0,076 mm 0,0 UV-I 21 W/m 2,9 C 8,7 C 4,8 km/h (1 Bft) 99,32 %
02.11.2015 17:00 6,7 C 72 % 1028,1 hPa 0,0 l/m 3,3 km/h (1 Bft) O 0,00 h 0,025 mm 0,0 UV-I 0 W/m 2,1 C 6,7 C 5,4 km/h (1 Bft) 99,33 %
02.11.2015 18:00 6,1 C 73 % 1028,1 hPa 0,0 l/m 4,1 km/h (1 Bft) O 0,00 h 0,026 mm 0,0 UV-I 0 W/m 1,7 C 6,1 C 7,2 km/h (2 Bft) 99,38 %
02.11.2015 19:00 5,0 C 77 % 1027,9 hPa 0,0 l/m 2,2 km/h (1 Bft) O 0,00 h 0,025 mm 0,0 UV-I 0 W/m 1,3 C 5,0 C 4,0 km/h (1 Bft) 99,50 %
02.11.2015 20:00 3,3 C 83 % 1027,6 hPa 0,0 l/m 0,4 km/h (0 Bft) O 0,00 h 0,000 mm 0,0 UV-I 0 W/m 0,8 C 3,3 C 1,1 km/h (0 Bft) 99,26 %
02.11.2015 21:00 1,5 C 89 % 1027,6 hPa 0,0 l/m 0,5 km/h (0 Bft) O 0,00 h 0,000 mm 0,0 UV-I 0 W/m -0,0 C 1,5 C 1,0 km/h (0 Bft) 99,35 %
02.11.2015 22:00 0,9 C 91 % 1027,6 hPa 0,0 l/m 0,3 km/h (0 Bft) O 0,00 h 0,000 mm 0,0 UV-I 0 W/m -0,3 C 0,9 C 0,6 km/h (0 Bft) 99,51 %
02.11.2015 23:00 0,5 C 92 % 1027,3 hPa 0,0 l/m 0,4 km/h (0 Bft) O-SO 0,00 h 0,000 mm 0,0 UV-I 0 W/m -0,7 C 0,5 C 0,9 km/h (0 Bft) 99,26 %
03.11.2015 00:00 0,2 C 93 % 1027,1 hPa 0,0 l/m 1,0 km/h (0 Bft) O-SO 0,00 h 0,000 mm 0,0 UV-I 0 W/m -0,8 C 0,2 C 2,1 km/h (1 Bft) 98,95 %
03.11.2015 01:00 -0,7 C 94 % 1026,9 hPa 0,0 l/m 0,4 km/h (0 Bft) S 0,00 h 0,000 mm 0,0 UV-I 0 W/m -1,5 C -0,7 C 0,9 km/h (0 Bft) 99,09 %
03.11.2015 02:00 -1,2 C 94 % 1026,4 hPa 0,0 l/m 0,2 km/h (0 Bft) S-SW 0,00 h 0,000 mm 0,0 UV-I 0 W/m -2,0 C -1,2 C 0,5 km/h (0 Bft) 99,24 %
03.11.2015 03:00 -1,3 C 95 % 1025,9 hPa 0,0 l/m 0,3 km/h (0 Bft) S-SW 0,00 h 0,000 mm 0,0 UV-I 0 W/m -2,0 C -1,3 C 0,7 km/h (0 Bft) 98,86 %
03.11.2015 04:00 -1,3 C 95 % 1025,5 hPa 0,0 l/m 0,4 km/h (0 Bft) O 0,00 h 0,000 mm 0,0 UV-I 0 W/m -2,0 C -1,3 C 1,1 km/h (1 Bft) 99,03 %
03.11.2015 05:00 -1,8 C 95 % 1025,3 hPa 0,0 l/m 0,3 km/h (0 Bft) O-NO 0,00 h 0,000 mm 0,0 UV-I 0 W/m -2,4 C -1,8 C 0,7 km/h (0 Bft) 99,08 %
03.11.2015 06:00 -1,1 C 96 % 1025,0 hPa 0,0 l/m 0,9 km/h (0 Bft) O-NO 0,00 h 0,000 mm 0,0 UV-I 4 W/m -1,7 C -1,1 C 1,8 km/h (1 Bft) 98,82 %
03.11.2015 07:00 -0,2 C 97 % 1025,2 hPa 0,0 l/m 5,0 km/h (1 Bft) O 0,00 h 0,000 mm 0,0 UV-I 17 W/m -0,7 C -0,6 C 8,1 km/h (2 Bft) 99,18 %
03.11.2015 08:00 0,2 C 97 % 1025,4 hPa 0,0 l/m 4,8 km/h (1 Bft) O 0,00 h 0,000 mm 0,0 UV-I 44 W/m -0,2 C -0,1 C 8,3 km/h (2 Bft) 98,70 %
03.11.2015 09:00 0,8 C 97 % 1025,1 hPa 0,0 l/m 4,9 km/h (1 Bft) O 0,00 h 0,025 mm 0,0 UV-I 68 W/m 0,4 C 0,7 C 8,1 km/h (2 Bft) 99,25 %
03.11.2015 10:00 1,4 C 97 % 1024,7 hPa 0,0 l/m 4,1 km/h (1 Bft) O 0,00 h 0,026 mm 0,5 UV-I 91 W/m 1,0 C 1,4 C 6,4 km/h (2 Bft) 99,21 %
03.11.2015 11:00 1,8 C 95 % 1024,1 hPa 0,0 l/m 3,8 km/h (1 Bft) O 0,00 h 0,025 mm 0,5 UV-I 107 W/m 1,2 C 1,8 C 6,2 km/h (2 Bft) 99,36 %
03.11.2015 12:00 2,2 C 94 % 1023,5 hPa 0,0 l/m 3,6 km/h (1 Bft) O 0,00 h 0,051 mm 0,6 UV-I 118 W/m 1,3 C 2,2 C 6,4 km/h (2 Bft) 99,42 %
03.11.2015 13:00 2,3 C 94 % 1023,1 hPa 0,0 l/m 6,2 km/h (2 Bft) O 0,00 h 0,051 mm 0,5 UV-I 113 W/m 1,4 C 1,7 C 10,1 km/h (2 Bft) 99,60 %
03.11.2015 14:00 2,4 C 93 % 1022,7 hPa 0,0 l/m 5,9 km/h (2 Bft) O 0,00 h 0,051 mm 0,0 UV-I 98 W/m 1,4 C 2,0 C 9,4 km/h (2 Bft) 99,21 %
03.11.2015 15:00 2,8 C 92 % 1022,4 hPa 0,0 l/m 3,5 km/h (1 Bft) O 0,13 h 0,050 mm 0,0 UV-I 72 W/m 1,7 C 2,8 C 5,7 km/h (1 Bft) 98,82 %
03.11.2015 16:00 2,2 C 93 % 1022,3 hPa 0,0 l/m 1,4 km/h (1 Bft) O 0,10 h 0,026 mm 0,0 UV-I 20 W/m 1,3 C 2,2 C 2,8 km/h (1 Bft) 99,02 %
03.11.2015 17:00 1,2 C 96 % 1022,3 hPa 0,0 l/m 0,1 km/h (0 Bft) O-NO 0,00 h 0,000 mm 0,0 UV-I 0 W/m 0,6 C 1,2 C 0,4 km/h (0 Bft) 99,40 %
03.11.2015 18:00 0,1 C 96 % 1022,2 hPa 0,0 l/m 0,3 km/h (0 Bft) SO 0,00 h 0,000 mm 0,0 UV-I 0 W/m -0,5 C 0,1 C 0,7 km/h (0 Bft) 99,45 %
03.11.2015 19:00 -0,4 C 96 % 1022,1 hPa 0,0 l/m 0,5 km/h (0 Bft) SO 0,00 h 0,000 mm 0,0 UV-I 0 W/m -0,9 C -0,4 C 1,2 km/h (1 Bft) 99,10 %
03.11.2015 20:00 -0,1 C 97 % 1022,2 hPa 0,0 l/m 0,3 km/h (0 Bft) SO 0,00 h 0,000 mm 0,0 UV-I 0 W/m -0,5 C -0,1 C 1,1 km/h (0 Bft) 99,22 %
03.11.2015 21:00 0,5 C 97 % 1022,6 hPa 0,0 l/m 0,5 km/h (0 Bft) S-SO 0,00 h 0,000 mm 0,0 UV-I 0 W/m 0,1 C 0,5 C 1,3 km/h (1 Bft) 99,12 %
03.11.2015 22:00 1,2 C 98 % 1022,8 hPa 0,0 l/m 0,6 km/h (0 Bft) S 0,00 h 0,000 mm 0,0 UV-I 0 W/m 0,9 C 1,2 C 1,6 km/h (1 Bft) 99,18 %
03.11.2015 23:00 1,2 C 98 % 1022,9 hPa 0,0 l/m 0,9 km/h (0 Bft) S 0,00 h 0,000 mm 0,0 UV-I 0 W/m 1,0 C 1,2 C 2,0 km/h (1 Bft) 99,14 %
04.11.2015 00:00 1,1 C 98 % 1023,0 hPa 0,0 l/m 0,6 km/h (0 Bft) S-SW 0,00 h 0,000 mm 0,0 UV-I 0 W/m 0,8 C 1,1 C 1,5 km/h (1 Bft) 99,11 %
04.11.2015 01:00 1,1 C 98 % 1023,1 hPa 0,0 l/m 0,6 km/h (0 Bft) SO 0,00 h 0,000 mm 0,0 UV-I 0 W/m 0,9 C 1,1 C 1,5 km/h (1 Bft) 99,43 %
04.11.2015 02:00 1,0 C 98 % 1023,3 hPa 0,0 l/m 1,1 km/h (0 Bft) S-SW 0,00 h 0,000 mm 0,0 UV-I 0 W/m 0,7 C 1,0 C 2,1 km/h (1 Bft) 99,06 %
04.11.2015 03:00 0,6 C 98 % 1023,6 hPa 0,0 l/m 1,8 km/h (1 Bft) SW 0,00 h 0,000 mm 0,0 UV-I 0 W/m 0,4 C 0,6 C 3,1 km/h (1 Bft) 99,30 %
04.11.2015 04:00 0,4 C 98 % 1023,8 hPa 0,0 l/m 1,7 km/h (1 Bft) W 0,00 h 0,000 mm 0,0 UV-I 0 W/m 0,1 C 0,4 C 3,1 km/h (1 Bft) 99,25 %
04.11.2015 05:00 0,5 C 98 % 1024,2 hPa 0,0 l/m 1,5 km/h (1 Bft) W-SW 0,00 h 0,000 mm 0,0 UV-I 0 W/m 0,3 C 0,5 C 2,8 km/h (1 Bft) 99,47 %
04.11.2015 06:00 0,4 C 98 % 1024,5 hPa 0,0 l/m 2,6 km/h (1 Bft) SW 0,00 h 0,000 mm 0,0 UV-I 0 W/m 0,1 C 0,4 C 4,2 km/h (1 Bft) 99,05 %
04.11.2015 07:00 0,6 C 98 % 1024,9 hPa 0,0 l/m 0,9 km/h (0 Bft) S-SW 0,00 h 0,000 mm 0,0 UV-I 17 W/m 0,3 C 0,6 C 2,1 km/h (1 Bft) 99,01 %
04.11.2015 08:00 0,7 C 98 % 1025,1 hPa 0,0 l/m 0,8 km/h (0 Bft) SW 0,00 h 0,000 mm 0,0 UV-I 53 W/m 0,4 C 0,7 C 2,0 km/h (1 Bft) 99,00 %
04.11.2015 09:00 1,3 C 98 % 1025,2 hPa 0,0 l/m 0,7 km/h (0 Bft) O 0,00 h 0,025 mm 0,5 UV-I 108 W/m 1,0 C 1,3 C 1,8 km/h (1 Bft) 99,45 %
04.11.2015 10:00 2,3 C 99 % 1025,1 hPa 0,0 l/m 0,7 km/h (0 Bft) O 0,00 h 0,026 mm 0,6 UV-I 152 W/m 2,1 C 2,3 C 1,6 km/h (1 Bft) 99,11 %
04.11.2015 11:00 3,5 C 99 % 1024,7 hPa 0,0 l/m 0,8 km/h (0 Bft) W 0,27 h 0,051 mm 1,0 UV-I 226 W/m 3,3 C 3,5 C 1,8 km/h (1 Bft) 99,03 %
04.11.2015 12:00 6,0 C 95 % 1024,0 hPa 0,0 l/m 1,8 km/h (1 Bft) S-SW 0,97 h 0,076 mm 1,2 UV-I 312 W/m 5,3 C 6,0 C 3,3 km/h (1 Bft) 99,52 %
04.11.2015 13:00 8,0 C 88 % 1023,5 hPa 0,0 l/m 2,9 km/h (1 Bft) SW 0,95 h 0,127 mm 0,9 UV-I 289 W/m 6,1 C 8,0 C 4,7 km/h (1 Bft) 99,25 %
04.11.2015 14:00 9,4 C 83 % 1023,0 hPa 0,0 l/m 2,3 km/h (1 Bft) SW 0,60 h 0,127 mm 0,6 UV-I 187 W/m 6,7 C 9,4 C 3,8 km/h (1 Bft) 99,87 %
04.11.2015 15:00 9,5 C 83 % 1022,7 hPa 0,0 l/m 1,7 km/h (1 Bft) SW 0,10 h 0,076 mm 0,0 UV-I 75 W/m 6,8 C 9,5 C 3,0 km/h (1 Bft) 99,11 %
04.11.2015 16:00 8,6 C 87 % 1022,4 hPa 0,0 l/m 0,8 km/h (0 Bft) SW 0,03 h 0,025 mm 0,0 UV-I 19 W/m 6,6 C 8,6 C 1,9 km/h (1 Bft) 99,26 %
04.11.2015 17:00 7,8 C 89 % 1022,4 hPa 0,0 l/m 0,5 km/h (0 Bft) S 0,00 h 0,000 mm 0,0 UV-I 0 W/m 6,1 C 7,8 C 1,1 km/h (1 Bft) 99,38 %
04.11.2015 18:00 7,9 C 88 % 1022,5 hPa 0,0 l/m 0,8 km/h (0 Bft) S 0,00 h 0,000 mm 0,0 UV-I 0 W/m 6,1 C 7,9 C 1,8 km/h (1 Bft) 99,51 %
04.11.2015 19:00 7,1 C 91 % 1022,6 hPa 0,0 l/m 0,1 km/h (0 Bft) S 0,00 h 0,000 mm 0,0 UV-I 0 W/m 5,8 C 7,1 C 0,4 km/h (0 Bft) 99,51 %
04.11.2015 20:00 7,0 C 93 % 1022,6 hPa 0,0 l/m 0,6 km/h (0 Bft) S 0,00 h 0,000 mm 0,0 UV-I 0 W/m 6,0 C 7,0 C 1,4 km/h (1 Bft) 99,32 %
04.11.2015 21:00 6,4 C 94 % 1022,5 hPa 0,0 l/m 0,1 km/h (0 Bft) N 0,00 h 0,000 mm 0,0 UV-I 0 W/m 5,4 C 6,4 C 0,4 km/h (0 Bft) 99,57 %
04.11.2015 22:00 6,5 C 94 % 1022,5 hPa 0,0 l/m 0,7 km/h (0 Bft) S 0,00 h 0,000 mm 0,0 UV-I 0 W/m 5,7 C 6,5 C 1,4 km/h (1 Bft) 98,76 %
04.11.2015 23:00 6,8 C 94 % 1022,5 hPa 0,0 l/m 0,4 km/h (0 Bft) S-SW 0,00 h 0,000 mm 0,0 UV-I 0 W/m 5,9 C 6,8 C 0,9 km/h (0 Bft) 99,35 %
05.11.2015 00:00 5,7 C 95 % 1022,2 hPa 0,0 l/m 0,5 km/h (0 Bft) O-SO 0,00 h 0,000 mm 0,0 UV-I 0 W/m 5,1 C 5,7 C 1,1 km/h (1 Bft) 99,33 %
05.11.2015 01:00 5,5 C 97 % 1022,0 hPa 0,0 l/m 0,5 km/h (0 Bft) O-SO 0,00 h 0,000 mm 0,0 UV-I 0 W/m 5,0 C 5,5 C 1,3 km/h (1 Bft) 99,08 %
05.11.2015 02:00 5,6 C 96 % 1022,1 hPa 0,0 l/m 0,7 km/h (0 Bft) W-SW 0,00 h 0,000 mm 0,0 UV-I 0 W/m 5,1 C 5,6 C 1,4 km/h (1 Bft) 99,37 %
05.11.2015 03:00 5,3 C 97 % 1022,0 hPa 0,0 l/m 0,7 km/h (0 Bft) N-NO 0,00 h 0,000 mm 0,0 UV-I 0 W/m 4,9 C 5,3 C 1,5 km/h (1 Bft) 99,38 %
05.11.2015 04:00 5,0 C 97 % 1022,4 hPa 0,0 l/m 0,8 km/h (0 Bft) O-SO 0,00 h 0,000 mm 0,0 UV-I 0 W/m 4,5 C 5,0 C 1,8 km/h (1 Bft) 99,03 %
05.11.2015 05:00 5,0 C 97 % 1022,7 hPa 0,0 l/m 1,1 km/h (1 Bft) S 0,00 h 0,000 mm 0,0 UV-I 0 W/m 4,5 C 5,0 C 2,4 km/h (1 Bft) 98,67 %
05.11.2015 06:00 4,7 C 97 % 1022,9 hPa 0,0 l/m 0,5 km/h (0 Bft) S 0,00 h 0,000 mm 0,0 UV-I 0 W/m 4,3 C 4,7 C 1,0 km/h (0 Bft) 99,14 %
05.11.2015 07:00 4,8 C 98 % 1023,5 hPa 0,0 l/m 0,5 km/h (0 Bft) S-SO 0,00 h 0,000 mm 0,0 UV-I 12 W/m 4,5 C 4,8 C 1,0 km/h (0 Bft) 98,91 %
05.11.2015 08:00 5,1 C 97 % 1023,8 hPa 0,0 l/m 0,1 km/h (0 Bft) N 0,38 h 0,000 mm 0,0 UV-I 107 W/m 4,7 C 5,1 C 0,4 km/h (0 Bft) 99,39 %
05.11.2015 09:00 7,5 C 94 % 1023,9 hPa 0,0 l/m 0,4 km/h (0 Bft) N 0,17 h 0,051 mm 0,6 UV-I 165 W/m 6,6 C 7,5 C 1,1 km/h (1 Bft) 99,21 %
05.11.2015 10:00 9,7 C 88 % 1023,8 hPa 0,0 l/m 1,1 km/h (1 Bft) N 0,85 h 0,076 mm 1,1 UV-I 336 W/m 7,9 C 9,7 C 2,5 km/h (1 Bft) 99,79 %
05.11.2015 11:00 12,2 C 80 % 1023,3 hPa 0,0 l/m 1,9 km/h (1 Bft) N 1,00 h 0,152 mm 1,4 UV-I 396 W/m 8,8 C 12,2 C 3,7 km/h (1 Bft) 99,32 %
05.11.2015 12:00 13,8 C 74 % 1022,7 hPa 0,0 l/m 2,0 km/h (1 Bft) N 1,00 h 0,204 mm 1,4 UV-I 394 W/m 9,3 C 13,8 C 3,8 km/h (1 Bft) 99,58 %
05.11.2015 13:00 14,7 C 70 % 1022,0 hPa 0,0 l/m 2,2 km/h (1 Bft) W-NW 1,00 h 0,203 mm 1,1 UV-I 343 W/m 9,4 C 14,7 C 3,7 km/h (1 Bft) 99,33 %
05.11.2015 14:00 15,2 C 68 % 1021,7 hPa 0,0 l/m 1,8 km/h (1 Bft) N-NO 1,00 h 0,178 mm 0,6 UV-I 240 W/m 9,4 C 15,2 C 3,3 km/h (1 Bft) 99,41 %
05.11.2015 15:00 14,8 C 69 % 1021,7 hPa 0,0 l/m 1,1 km/h (1 Bft) N 0,72 h 0,127 mm 0,0 UV-I 103 W/m 9,3 C 14,8 C 2,3 km/h (1 Bft) 99,47 %
05.11.2015 16:00 11,6 C 83 % 1021,8 hPa 0,0 l/m 1,2 km/h (1 Bft) O 0,07 h 0,050 mm 0,0 UV-I 17 W/m 8,7 C 11,6 C 2,1 km/h (1 Bft) 99,54 %
05.11.2015 17:00 9,8 C 89 % 1022,2 hPa 0,0 l/m 0,8 km/h (0 Bft) SO 0,00 h 0,000 mm 0,0 UV-I 0 W/m 8,0 C 9,8 C 1,1 km/h (1 Bft) 99,79 %
05.11.2015 18:00 8,9 C 91 % 1022,6 hPa 0,0 l/m 0,2 km/h (0 Bft) SO 0,00 h 0,000 mm 0,0 UV-I 0 W/m 7,5 C 8,9 C 0,5 km/h (0 Bft) 99,63 %
05.11.2015 19:00 8,6 C 93 % 1022,5 hPa 0,0 l/m 0,0 km/h (0 Bft) N 0,00 h 0,000 mm 0,0 UV-I 0 W/m 7,5 C 8,6 C 0,0 km/h (0 Bft) 99,25 %
05.11.2015 20:00 8,0 C 94 % 1022,7 hPa 0,0 l/m 0,0 km/h (0 Bft) N 0,00 h 0,000 mm 0,0 UV-I 0 W/m 7,1 C 8,0 C 0,0 km/h (0 Bft) 99,17 %
05.11.2015 21:00 6,5 C 96 % 1022,9 hPa 0,0 l/m 0,7 km/h (0 Bft) SO 0,00 h 0,000 mm 0,0 UV-I 0 W/m 5,8 C 6,5 C 1,2 km/h (1 Bft) 99,23 %
05.11.2015 22:00 5,6 C 97 % 1022,8 hPa 0,0 l/m 0,5 km/h (0 Bft) SO 0,00 h 0,000 mm 0,0 UV-I 0 W/m 5,1 C 5,6 C 1,1 km/h (0 Bft) 99,68 %
05.11.2015 23:00 5,4 C 97 % 1022,7 hPa 0,0 l/m 0,1 km/h (0 Bft) S-SO 0,00 h 0,000 mm 0,0 UV-I 0 W/m 4,9 C 5,4 C 0,2 km/h (0 Bft) 99,37 %
06.11.2015 00:00 4,7 C 98 % 1022,9 hPa 0,0 l/m 0,2 km/h (0 Bft) S-SO 0,00 h 0,000 mm 0,0 UV-I 0 W/m 4,3 C 4,7 C 0,4 km/h (0 Bft) 99,06 %
06.11.2015 01:00 3,7 C 98 % 1023,1 hPa 0,0 l/m 0,4 km/h (0 Bft) S-SO 0,00 h 0,000 mm 0,0 UV-I 0 W/m 3,4 C 3,7 C 0,5 km/h (0 Bft) 99,33 %
06.11.2015 02:00 3,1 C 98 % 1023,3 hPa 0,0 l/m 0,1 km/h (0 Bft) N 0,00 h 0,000 mm 0,0 UV-I 0 W/m 2,9 C 3,1 C 0,2 km/h (0 Bft) 98,92 %
06.11.2015 03:00 3,1 C 98 % 1023,5 hPa 0,0 l/m 0,5 km/h (0 Bft) S-SW 0,00 h 0,000 mm 0,0 UV-I 0 W/m 2,9 C 3,1 C 1,2 km/h (1 Bft) 99,12 %
06.11.2015 04:00 3,1 C 98 % 1024,1 hPa 0,0 l/m 0,2 km/h (0 Bft) S-SW 0,00 h 0,000 mm 0,0 UV-I 0 W/m 2,8 C 3,1 C 0,7 km/h (0 Bft) 99,52 %
06.11.2015 05:00 2,5 C 98 % 1024,4 hPa 0,0 l/m 0,0 km/h (0 Bft) S-SW 0,00 h 0,000 mm 0,0 UV-I 0 W/m 2,2 C 2,5 C 0,1 km/h (0 Bft) 99,58 %
06.11.2015 06:00 1,9 C 98 % 1024,9 hPa 0,0 l/m 0,1 km/h (0 Bft) N 0,00 h 0,000 mm 0,0 UV-I 9 W/m 1,6 C 1,9 C 0,1 km/h (0 Bft) 99,00 %
06.11.2015 07:00 2,0 C 98 % 1025,4 hPa 0,0 l/m 0,0 km/h (0 Bft) S 0,50 h 0,000 mm 0,0 UV-I 44 W/m 1,8 C 2,0 C 0,2 km/h (0 Bft) 99,30 %
06.11.2015 08:00 3,3 C 98 % 1025,9 hPa 0,0 l/m 0,2 km/h (0 Bft) W-NW 0,38 h 0,025 mm 0,0 UV-I 117 W/m 3,0 C 3,3 C 0,7 km/h (0 Bft) 99,23 %
06.11.2015 09:00 4,9 C 98 % 1026,2 hPa 0,0 l/m 0,6 km/h (0 Bft) N 0,65 h 0,051 mm 0,6 UV-I 223 W/m 4,7 C 4,9 C 1,6 km/h (1 Bft) 99,33 %
06.11.2015 10:00 6,6 C 97 % 1026,0 hPa 0,0 l/m 1,4 km/h (1 Bft) N 1,00 h 0,102 mm 1,1 UV-I 312 W/m 6,2 C 6,6 C 2,6 km/h (1 Bft) 99,65 %
06.11.2015 11:00 8,4 C 94 % 1025,9 hPa 0,0 l/m 2,1 km/h (1 Bft) N 0,97 h 0,127 mm 1,4 UV-I 378 W/m 7,6 C 8,4 C 3,6 km/h (1 Bft) 99,61 %
06.11.2015 12:00 9,9 C 92 % 1025,5 hPa 0,0 l/m 2,1 km/h (1 Bft) N-NO 1,00 h 0,178 mm 1,3 UV-I 385 W/m 8,6 C 9,9 C 3,6 km/h (1 Bft) 99,86 %
06.11.2015 13:00 11,2 C 87 % 1025,4 hPa 0,0 l/m 1,3 km/h (1 Bft) N 1,00 h 0,177 mm 0,9 UV-I 303 W/m 9,1 C 11,2 C 2,6 km/h (1 Bft) 99,02 %
06.11.2015 14:00 12,6 C 81 % 1025,3 hPa 0,0 l/m 0,9 km/h (0 Bft) O 0,93 h 0,153 mm 0,6 UV-I 228 W/m 9,5 C 12,6 C 2,1 km/h (1 Bft) 99,33 %
06.11.2015 15:00 13,0 C 81 % 1025,1 hPa 0,0 l/m 0,9 km/h (0 Bft) O 0,68 h 0,127 mm 0,0 UV-I 99 W/m 9,8 C 13,0 C 2,0 km/h (1 Bft) 99,09 %
06.11.2015 16:00 11,5 C 85 % 1025,1 hPa 0,0 l/m 0,3 km/h (0 Bft) O 0,05 h 0,051 mm 0,0 UV-I 16 W/m 9,1 C 11,5 C 1,1 km/h (0 Bft) 99,31 %
06.11.2015 17:00 9,2 C 92 % 1025,6 hPa 0,0 l/m 0,4 km/h (0 Bft) O-NO 0,00 h 0,000 mm 0,0 UV-I 0 W/m 7,9 C 9,2 C 1,0 km/h (0 Bft) 99,36 %
06.11.2015 18:00 7,7 C 95 % 1026,2 hPa 0,0 l/m 0,4 km/h (0 Bft) O-NO 0,00 h 0,000 mm 0,0 UV-I 0 W/m 6,9 C 7,7 C 0,9 km/h (0 Bft) 99,29 %
06.11.2015 19:00 8,2 C 95 % 1026,3 hPa 0,0 l/m 0,4 km/h (0 Bft) O-SO 0,00 h 0,000 mm 0,0 UV-I 0 W/m 7,5 C 8,2 C 1,0 km/h (0 Bft) 99,29 %
06.11.2015 20:00 8,2 C 95 % 1026,3 hPa 0,0 l/m 0,3 km/h (0 Bft) O-SO 0,00 h 0,000 mm 0,0 UV-I 0 W/m 7,5 C 8,2 C 0,8 km/h (0 Bft) 99,24 %
06.11.2015 21:00 7,8 C 96 % 1026,4 hPa 0,0 l/m 0,7 km/h (0 Bft) NO 0,00 h 0,000 mm 0,0 UV-I 0 W/m 7,2 C 7,8 C 1,6 km/h (1 Bft) 99,25 %
06.11.2015 22:00 7,2 C 96 % 1026,5 hPa 0,0 l/m 0,2 km/h (0 Bft) O-NO 0,00 h 0,000 mm 0,0 UV-I 0 W/m 6,6 C 7,2 C 0,8 km/h (0 Bft) 99,58 %
06.11.2015 23:00 6,8 C 97 % 1026,5 hPa 0,0 l/m 0,2 km/h (0 Bft) O-SO 0,00 h 0,000 mm 0,0 UV-I 0 W/m 6,4 C 6,8 C 0,5 km/h (0 Bft) 99,35 %
07.11.2015 00:00 7,2 C 97 % 1026,5 hPa 0,0 l/m 0,5 km/h (0 Bft) SO 0,00 h 0,000 mm 0,0 UV-I 0 W/m 6,7 C 7,2 C 1,1 km/h (0 Bft) 99,24 %
07.11.2015 01:00 7,3 C 97 % 1026,4 hPa 0,0 l/m 0,3 km/h (0 Bft) SO 0,00 h 0,000 mm 0,0 UV-I 0 W/m 6,9 C 7,3 C 0,7 km/h (0 Bft) 99,19 %
07.11.2015 02:00 7,0 C 97 % 1026,3 hPa 0,0 l/m 0,3 km/h (0 Bft) SO 0,00 h 0,000 mm 0,0 UV-I 0 W/m 6,6 C 7,0 C 0,5 km/h (0 Bft) 99,11 %
07.11.2015 03:00 6,6 C 97 % 1026,2 hPa 0,0 l/m 0,1 km/h (0 Bft) O 0,00 h 0,000 mm 0,0 UV-I 0 W/m 6,2 C 6,6 C 0,4 km/h (0 Bft) 99,53 %
07.11.2015 04:00 6,6 C 98 % 1026,3 hPa 0,0 l/m 0,2 km/h (0 Bft) O 0,00 h 0,000 mm 0,0 UV-I 0 W/m 6,3 C 6,6 C 0,6 km/h (0 Bft) 99,50 %
07.11.2015 05:00 6,2 C 98 % 1026,2 hPa 0,0 l/m 1,0 km/h (0 Bft) S-SW 0,00 h 0,000 mm 0,0 UV-I 0 W/m 5,9 C 6,2 C 1,9 km/h (1 Bft) 99,12 %
07.11.2015 06:00 6,6 C 98 % 1026,3 hPa 0,0 l/m 0,4 km/h (0 Bft) S-SW 0,00 h 0,000 mm 0,0 UV-I 6 W/m 6,3 C 6,6 C 1,1 km/h (1 Bft) 99,05 %
07.11.2015 07:00 7,5 C 97 % 1027,0 hPa 0,0 l/m 0,4 km/h (0 Bft) N 0,00 h 0,000 mm 0,0 UV-I 14 W/m 7,0 C 7,5 C 1,2 km/h (1 Bft) 99,18 %
07.11.2015 08:00 8,7 C 97 % 1027,8 hPa 1,6 l/m 1,7 km/h (1 Bft) S 0,00 h 0,000 mm 0,0 UV-I 40 W/m 8,2 C 8,7 C 3,1 km/h (1 Bft) 98,87 %
07.11.2015 09:00 11,0 C 97 % 1027,7 hPa 0,0 l/m 4,2 km/h (1 Bft) S-SW 0,00 h 0,025 mm 0,5 UV-I 83 W/m 10,5 C 11,0 C 6,5 km/h (2 Bft) 99,57 %
07.11.2015 10:00 12,9 C 94 % 1027,8 hPa 0,0 l/m 5,2 km/h (1 Bft) W 0,00 h 0,051 mm 0,6 UV-I 107 W/m 11,9 C 12,7 C 8,8 km/h (2 Bft) 99,49 %
07.11.2015 11:00 13,4 C 89 % 1027,8 hPa 0,0 l/m 7,8 km/h (2 Bft) W 0,00 h 0,051 mm 0,5 UV-I 78 W/m 11,7 C 12,4 C 12,4 km/h (3 Bft) 99,59 %
07.11.2015 12:00 13,9 C 89 % 1027,2 hPa 0,0 l/m 8,1 km/h (2 Bft) W 0,07 h 0,051 mm 0,7 UV-I 157 W/m 12,1 C 12,9 C 13,4 km/h (3 Bft) 99,59 %
07.11.2015 13:00 14,5 C 88 % 1026,8 hPa 0,0 l/m 8,3 km/h (2 Bft) W 0,00 h 0,101 mm 0,6 UV-I 118 W/m 12,5 C 13,3 C 13,3 km/h (3 Bft) 99,48 %
07.11.2015 14:00 14,6 C 90 % 1027,0 hPa 0,0 l/m 6,1 km/h (2 Bft) W 0,00 h 0,077 mm 0,4 UV-I 58 W/m 12,9 C 14,2 C 10,0 km/h (2 Bft) 99,43 %
07.11.2015 15:00 14,1 C 93 % 1027,3 hPa 0,0 l/m 3,2 km/h (1 Bft) W 0,00 h 0,025 mm 0,0 UV-I 25 W/m 13,0 C 14,0 C 5,1 km/h (1 Bft) 97,41 %
07.11.2015 16:00 13,4 C 96 % 1027,6 hPa 0,0 l/m 0,1 km/h (0 Bft) W 0,00 h 0,025 mm 0,0 UV-I 5 W/m 12,8 C 13,4 C 0,5 km/h (0 Bft) 99,45 %
07.11.2015 17:00 13,0 C 98 % 1027,8 hPa 0,0 l/m 0,6 km/h (0 Bft) SO 0,00 h 0,000 mm 0,0 UV-I 0 W/m 12,7 C 13,0 C 1,1 km/h (1 Bft) 99,46 %
07.11.2015 18:00 12,9 C 98 % 1028,0 hPa 0,0 l/m 0,1 km/h (0 Bft) SO 0,00 h 0,000 mm 0,0 UV-I 0 W/m 12,6 C 12,9 C 0,4 km/h (0 Bft) 98,92 %
07.11.2015 19:00 12,6 C 98 % 1027,8 hPa 0,0 l/m 0,4 km/h (0 Bft) O 0,00 h 0,000 mm 0,0 UV-I 0 W/m 12,3 C 12,6 C 1,1 km/h (1 Bft) 99,14 %
07.11.2015 20:00 12,4 C 98 % 1028,1 hPa 0,0 l/m 0,2 km/h (0 Bft) N-NW 0,00 h 0,000 mm 0,0 UV-I 0 W/m 12,1 C 12,4 C 0,7 km/h (0 Bft) 99,46 %
07.11.2015 21:00 12,2 C 98 % 1028,2 hPa 0,0 l/m 0,3 km/h (0 Bft) O 0,00 h 0,000 mm 0,0 UV-I 0 W/m 12,0 C 12,2 C 0,8 km/h (0 Bft) 98,76 %
07.11.2015 22:00 12,4 C 99 % 1027,7 hPa 0,0 l/m 1,5 km/h (1 Bft) S 0,00 h 0,000 mm 0,0 UV-I 0 W/m 12,2 C 12,4 C 2,7 km/h (1 Bft) 99,43 %
07.11.2015 23:00 12,0 C 98 % 1027,5 hPa 0,0 l/m 3,9 km/h (1 Bft) S-SW 0,00 h 0,000 mm 0,0 UV-I 0 W/m 11,6 C 12,0 C 5,9 km/h (2 Bft) 99,12 %
08.11.2015 00:00 11,6 C 96 % 1027,2 hPa 0,0 l/m 2,1 km/h (1 Bft) S-SW 0,00 h 0,000 mm 0,0 UV-I 0 W/m 11,0 C 11,6 C 3,4 km/h (1 Bft) 99,21 %
08.11.2015 01:00 10,8 C 97 % 1027,5 hPa 0,0 l/m 2,1 km/h (1 Bft) SW 0,00 h 0,000 mm 0,0 UV-I 0 W/m 10,3 C 10,8 C 3,5 km/h (1 Bft) 99,52 %
08.11.2015 02:00 9,9 C 97 % 1027,7 hPa 0,0 l/m 0,4 km/h (0 Bft) S 0,00 h 0,000 mm 0,0 UV-I 0 W/m 9,5 C 9,9 C 1,2 km/h (1 Bft) 99,17 %
08.11.2015 03:00 10,1 C 97 % 1028,2 hPa 0,0 l/m 0,8 km/h (0 Bft) S-SW 0,00 h 0,000 mm 0,0 UV-I 0 W/m 9,6 C 10,1 C 1,7 km/h (1 Bft) 99,19 %
08.11.2015 04:00 10,7 C 96 % 1028,8 hPa 0,0 l/m 4,0 km/h (1 Bft) S-SW 0,00 h 0,000 mm 0,0 UV-I 0 W/m 10,0 C 10,6 C 6,1 km/h (2 Bft) 99,30 %
08.11.2015 05:00 10,7 C 96 % 1028,7 hPa 0,0 l/m 3,9 km/h (1 Bft) SW 0,00 h 0,000 mm 0,0 UV-I 0 W/m 10,0 C 10,7 C 6,0 km/h (2 Bft) 99,32 %
08.11.2015 06:00 11,6 C 92 % 1028,6 hPa 0,0 l/m 3,4 km/h (1 Bft) W 0,00 h 0,000 mm 0,0 UV-I 0 W/m 10,4 C 11,6 C 5,4 km/h (1 Bft) 99,23 %
08.11.2015 07:00 11,9 C 91 % 1029,0 hPa 0,0 l/m 3,7 km/h (1 Bft) W 0,00 h 0,000 mm 0,0 UV-I 20 W/m 10,5 C 11,9 C 5,8 km/h (2 Bft) 99,03 %
08.11.2015 08:00 12,5 C 90 % 1029,8 hPa 0,0 l/m 1,8 km/h (1 Bft) W 0,00 h 0,025 mm 0,0 UV-I 58 W/m 10,9 C 12,5 C 3,4 km/h (1 Bft) 98,83 %
08.11.2015 09:00 12,9 C 91 % 1030,3 hPa 0,0 l/m 0,1 km/h (0 Bft) W-NW 0,00 h 0,026 mm 0,5 UV-I 86 W/m 11,5 C 12,9 C 0,3 km/h (0 Bft) 98,70 %
08.11.2015 10:00 14,5 C 88 % 1030,7 hPa 0,0 l/m 1,5 km/h (1 Bft) W 0,20 h 0,051 mm 0,9 UV-I 180 W/m 12,5 C 14,5 C 3,1 km/h (1 Bft) 98,43 %
08.11.2015 11:00 15,7 C 86 % 1030,2 hPa 0,0 l/m 2,3 km/h (1 Bft) W 0,20 h 0,101 mm 1,1 UV-I 220 W/m 13,3 C 15,7 C 4,2 km/h (1 Bft) 99,04 %
08.11.2015 12:00 16,5 C 85 % 1029,5 hPa 0,0 l/m 2,5 km/h (1 Bft) N 1,00 h 0,127 mm 1,5 UV-I 398 W/m 13,9 C 16,5 C 4,8 km/h (1 Bft) 99,29 %
08.11.2015 13:00 16,9 C 84 % 1029,0 hPa 0,0 l/m 1,9 km/h (1 Bft) N 1,00 h 0,203 mm 1,1 UV-I 321 W/m 14,2 C 16,9 C 3,7 km/h (1 Bft) 99,21 %
08.11.2015 14:00 16,0 C 88 % 1028,3 hPa 0,0 l/m 2,9 km/h (1 Bft) N 0,48 h 0,178 mm 0,5 UV-I 154 W/m 14,0 C 16,0 C 4,9 km/h (1 Bft) 99,47 %
08.11.2015 15:00 15,1 C 90 % 1028,0 hPa 0,0 l/m 1,6 km/h (1 Bft) N 0,65 h 0,076 mm 0,0 UV-I 93 W/m 13,4 C 15,1 C 3,1 km/h (1 Bft) 99,19 %
08.11.2015 16:00 13,8 C 93 % 1027,4 hPa 0,0 l/m 0,5 km/h (0 Bft) S-SO 0,35 h 0,051 mm 0,0 UV-I 17 W/m 12,7 C 13,8 C 1,1 km/h (1 Bft) 99,37 %
08.11.2015 17:00 12,4 C 96 % 1027,0 hPa 0,0 l/m 0,2 km/h (0 Bft) S-SO 0,00 h 0,000 mm 0,0 UV-I 0 W/m 11,8 C 12,4 C 0,5 km/h (0 Bft) 99,30 %
08.11.2015 18:00 11,4 C 98 % 1026,9 hPa 0,0 l/m 0,0 km/h (0 Bft) N 0,00 h 0,000 mm 0,0 UV-I 0 W/m 11,0 C 11,4 C 0,0 km/h (0 Bft) 98,73 %
08.11.2015 19:00 10,7 C 98 % 1026,7 hPa 0,0 l/m 0,0 km/h (0 Bft) N 0,00 h 0,000 mm 0,0 UV-I 0 W/m 10,4 C 10,7 C 0,0 km/h (0 Bft) 99,39 %
08.11.2015 20:00 9,7 C 98 % 1026,2 hPa 0,0 l/m 0,0 km/h (0 Bft) N 0,00 h 0,000 mm 0,0 UV-I 0 W/m 9,4 C 9,7 C 0,0 km/h (0 Bft) 98,74 %
08.11.2015 21:00 9,5 C 99 % 1025,9 hPa 0,0 l/m 0,6 km/h (0 Bft) S-SW 0,00 h 0,000 mm 0,0 UV-I 0 W/m 9,3 C 9,5 C 1,4 km/h (1 Bft) 99,32 %
08.11.2015 22:00 10,0 C 99 % 1025,7 hPa 0,0 l/m 0,6 km/h (0 Bft) SW 0,00 h 0,000 mm 0,0 UV-I 0 W/m 9,8 C 10,0 C 1,3 km/h (1 Bft) 99,30 %
08.11.2015 23:00 10,6 C 99 % 1025,2 hPa 0,0 l/m 0,6 km/h (0 Bft) S-SW 0,00 h 0,000 mm 0,0 UV-I 0 W/m 10,5 C 10,6 C 1,6 km/h (1 Bft) 99,21 %
Min-Datum _ 03.11.15 02.11.15 05.11.15 - 02.11.15 - - - - - 03.11.15 03.11.15 02.11.15 08.11.15
_ Min-Zeit 05:34 14:37 14:46 - 00:03 - - - - - 05:34 08:57 00:03 18:35
Minimum _ -2,3 C 53 % 1021,6 hPa - 0,0 km/h (0 Bft) - - - - - -3,1 C -2,6 C 0,0 km/h (0 Bft) 50,00 %
Max-Datum _ 08.11.15 04.11.15 02.11.15 07.11.15 07.11.15 - 02.11.15 02.11.15 02.11.15 06.11.15 08.11.15 08.11.15 07.11.15 02.11.15
_ Max-Zeit 13:17 10:00 00:08 08:19 13:57 - 09:20 13:00 11:29 13:14 13:17 13:17 11:00 00:00
Maximum _ 17,1 C 99 % 1031,0 hPa 1,6 l/m 12,7 km/h
W (3 Bft)
- 0,08 h 0,229 mm 1,8 UV-I 505 W/m 14,7 C 17,1 C 20,9 km/h
W (4 Bft)
100,00 %
Durchschnitt _ 6,7 C 92 % 1025,7 hPa #1,6 l/m 1,5 km/h (1 Bft) O #28:55 h #5,460 mm 0,9 UV-I 154 W/m 5,3 C 6,7 C 2,7 km/h (1 Bft) 99,24 %